createdAt,value
2019-03-25T00:00:02.319Z,56.40
2019-03-25T00:02:30.685Z,56.40
2019-03-25T00:04:58.957Z,56.30
2019-03-25T00:07:27.241Z,56.20
2019-03-25T00:09:55.525Z,56.30
2019-03-25T00:12:23.803Z,56.20
2019-03-25T00:14:52.091Z,56.20
2019-03-25T00:17:20.363Z,56.20
2019-03-25T00:19:48.645Z,56.20
2019-03-25T00:22:16.923Z,56.10
2019-03-25T00:24:45.215Z,56.10
2019-03-25T00:27:13.495Z,56.10
2019-03-25T00:29:41.863Z,56.10
2019-03-25T00:32:10.135Z,56.10
2019-03-25T00:34:38.408Z,56.10
2019-03-25T00:37:06.766Z,56.00
2019-03-25T00:39:35.056Z,56.00
2019-03-25T00:42:03.342Z,55.90
2019-03-25T00:44:31.614Z,55.90
2019-03-25T00:46:59.896Z,55.90
2019-03-25T00:49:28.176Z,55.90
2019-03-25T00:51:56.537Z,55.80
2019-03-25T00:54:24.816Z,55.80
2019-03-25T00:56:53.169Z,55.80
2019-03-25T00:59:21.439Z,55.70
2019-03-25T01:01:49.734Z,55.80
2019-03-25T01:04:18.001Z,55.70
2019-03-25T01:06:46.298Z,55.70
2019-03-25T01:09:14.573Z,55.70
2019-03-25T01:11:48.972Z,55.70
2019-03-25T01:14:13.195Z,55.60
2019-03-25T01:16:41.560Z,55.70
2019-03-25T01:19:09.829Z,55.70
2019-03-25T01:21:38.122Z,55.70
2019-03-25T01:24:06.391Z,55.60
2019-03-25T01:26:34.683Z,55.40
2019-03-25T01:29:02.958Z,55.60
2019-03-25T01:31:31.249Z,55.60
2019-03-25T01:33:59.530Z,55.60
2019-03-25T01:36:27.881Z,55.60
2019-03-25T01:38:56.154Z,55.60
2019-03-25T01:41:24.545Z,55.60
2019-03-25T01:43:52.815Z,55.50
2019-03-25T01:46:21.101Z,55.50
2019-03-25T01:48:49.400Z,55.50
2019-03-25T01:51:17.674Z,55.50
2019-03-25T01:53:45.962Z,55.60
2019-03-25T01:56:14.237Z,55.60
2019-03-25T01:58:42.592Z,55.60
2019-03-25T02:01:10.866Z,55.50
2019-03-25T02:03:39.151Z,55.60
2019-03-25T02:06:07.434Z,55.50
2019-03-25T02:08:35.728Z,55.60
2019-03-25T02:11:04.008Z,55.60
2019-03-25T02:13:32.286Z,55.50
2019-03-25T02:16:00.568Z,55.50
2019-03-25T02:18:29.110Z,55.50
2019-03-25T02:20:57.474Z,55.80
2019-03-25T02:23:25.755Z,55.50
2019-03-25T02:25:54.026Z,55.50
2019-03-25T02:28:22.393Z,55.50
2019-03-25T02:30:50.679Z,55.50
2019-03-25T02:33:19.039Z,55.50
2019-03-25T02:35:47.397Z,55.50
2019-03-25T02:38:15.756Z,55.50
2019-03-25T02:40:44.102Z,55.50
2019-03-25T02:43:12.475Z,55.50
2019-03-25T02:45:40.749Z,55.40
2019-03-25T02:48:09.118Z,55.40
2019-03-25T02:50:37.463Z,55.40
2019-03-25T02:53:05.839Z,55.40
2019-03-25T02:55:41.281Z,55.50
2019-03-25T02:58:04.138Z,55.40
2019-03-25T03:00:37.072Z,55.50
2019-03-25T03:03:06.375Z,55.30
2019-03-25T03:05:35.132Z,55.30
2019-03-25T03:08:03.538Z,55.30
2019-03-25T03:10:31.803Z,55.30
2019-03-25T03:13:00.092Z,55.30
2019-03-25T03:15:28.368Z,55.80
2019-03-25T03:17:56.735Z,55.30
2019-03-25T03:20:25.083Z,55.20
2019-03-25T03:22:53.383Z,55.30
2019-03-25T03:25:21.724Z,55.20
2019-03-25T03:27:50.030Z,55.20
2019-03-25T03:30:18.356Z,55.20
2019-03-25T03:32:46.690Z,55.20
2019-03-25T03:35:14.980Z,55.20
2019-03-25T03:37:43.329Z,55.10
2019-03-25T03:40:11.687Z,55.10
2019-03-25T03:42:40.046Z,55.20
2019-03-25T03:45:08.427Z,55.10
2019-03-25T03:47:36.705Z,55.10
2019-03-25T03:50:06.703Z,55.20
2019-03-25T03:52:35.648Z,55.10
2019-03-25T03:55:07.370Z,55.10
2019-03-25T03:57:35.924Z,55.10
2019-03-25T04:00:06.246Z,55.00
2019-03-25T04:02:34.617Z,55.10
2019-03-25T04:05:02.974Z,55.10
2019-03-25T04:07:31.330Z,55.10
2019-03-25T04:09:59.621Z,55.10
2019-03-25T04:12:27.966Z,55.00
2019-03-25T04:14:56.254Z,54.50
2019-03-25T04:17:24.524Z,55.00
2019-03-25T04:19:52.885Z,54.70
2019-03-25T04:22:21.254Z,54.90
2019-03-25T04:24:49.534Z,54.90
2019-03-25T04:27:17.812Z,54.90
2019-03-25T04:29:46.173Z,54.90
2019-03-25T04:32:14.462Z,54.90
2019-03-25T04:34:42.827Z,54.90
2019-03-25T04:37:11.107Z,54.80
2019-03-25T04:39:39.463Z,54.80
2019-03-25T04:42:07.739Z,54.80
2019-03-25T04:44:36.024Z,54.70
2019-03-25T04:47:04.303Z,54.70
2019-03-25T04:49:32.591Z,54.80
2019-03-25T04:52:00.862Z,54.70
2019-03-25T04:54:29.158Z,54.70
2019-03-25T04:56:57.419Z,54.70
2019-03-25T04:59:25.703Z,54.70
2019-03-25T05:01:53.991Z,54.70
2019-03-25T05:04:22.350Z,54.70
2019-03-25T05:06:50.620Z,54.70
2019-03-25T05:09:18.892Z,54.70
2019-03-25T05:11:47.182Z,54.70
2019-03-25T05:14:15.461Z,54.70
2019-03-25T05:16:43.779Z,54.70
2019-03-25T05:19:12.049Z,54.70
2019-03-25T05:21:40.432Z,54.70
2019-03-25T05:24:08.721Z,54.70
2019-03-25T05:26:37.030Z,54.70
2019-03-25T05:29:05.396Z,54.70
2019-03-25T05:31:33.707Z,54.70
2019-03-25T05:34:02.048Z,54.70
2019-03-25T05:36:30.337Z,54.60
2019-03-25T05:38:58.615Z,54.70
2019-03-25T05:41:26.910Z,54.70
2019-03-25T05:43:55.182Z,54.80
2019-03-25T05:46:23.465Z,54.90
2019-03-25T05:48:51.741Z,54.90
2019-03-25T05:51:20.035Z,55.00
2019-03-25T05:53:48.444Z,55.00
2019-03-25T05:56:16.755Z,55.10
2019-03-25T05:58:45.075Z,55.10
2019-03-25T06:01:13.428Z,55.10
2019-03-25T06:03:41.704Z,55.20
2019-03-25T06:06:10.020Z,55.30
2019-03-25T06:08:38.391Z,55.40
2019-03-25T06:11:06.800Z,55.50
2019-03-25T06:13:35.147Z,55.60
2019-03-25T06:16:03.423Z,55.60
2019-03-25T06:18:31.709Z,55.70
2019-03-25T06:20:59.991Z,55.80
2019-03-25T06:23:28.293Z,55.90
2019-03-25T06:25:56.570Z,56.10
2019-03-25T06:28:24.937Z,56.20
2019-03-25T06:30:53.261Z,56.20
2019-03-25T06:33:21.593Z,56.30
2019-03-25T06:35:49.863Z,56.20
2019-03-25T06:38:18.165Z,56.30
2019-03-25T06:40:49.043Z,56.40
2019-03-25T06:43:16.535Z,56.60
2019-03-25T06:45:44.815Z,56.70
2019-03-25T06:48:13.201Z,56.90
2019-03-25T06:50:41.561Z,56.90
2019-03-25T06:53:09.836Z,57.10
2019-03-25T06:55:38.133Z,57.10
2019-03-25T06:58:06.582Z,57.10
2019-03-25T07:00:34.952Z,57.00
2019-03-25T07:03:03.228Z,57.00
2019-03-25T07:05:31.513Z,57.10
2019-03-25T07:07:59.795Z,57.10
2019-03-25T07:10:32.593Z,57.10
2019-03-25T07:13:01.233Z,57.10
2019-03-25T07:15:29.701Z,57.10
2019-03-25T07:17:58.051Z,57.10
2019-03-25T07:20:26.391Z,57.10
2019-03-25T07:22:54.685Z,57.10
2019-03-25T07:25:22.959Z,57.10
2019-03-25T07:27:51.250Z,57.10
2019-03-25T07:30:19.527Z,57.20
2019-03-25T07:32:47.822Z,57.40
2019-03-25T07:35:16.170Z,57.50
2019-03-25T07:37:44.473Z,57.10
2019-03-25T07:40:12.810Z,57.00
2019-03-25T07:42:42.946Z,56.90
2019-03-25T07:45:11.107Z,56.70
2019-03-25T07:47:39.469Z,56.70
2019-03-25T07:50:07.907Z,56.50
2019-03-25T07:52:36.273Z,56.40
2019-03-25T07:55:05.688Z,56.40
2019-03-25T07:57:34.159Z,56.40
2019-03-25T08:00:13.220Z,56.20
2019-03-25T08:02:32.615Z,56.60
2019-03-25T08:05:00.909Z,56.00
2019-03-25T08:07:29.202Z,56.00
2019-03-25T08:09:57.555Z,55.90
2019-03-25T08:12:25.843Z,55.90
2019-03-25T08:14:54.213Z,55.80
2019-03-25T08:17:22.607Z,55.70
2019-03-25T08:19:50.967Z,55.70
2019-03-25T08:22:19.244Z,55.60
2019-03-25T08:24:47.538Z,55.60
2019-03-25T08:27:15.884Z,55.60
2019-03-25T08:29:44.162Z,55.50
2019-03-25T08:32:12.457Z,55.40
2019-03-25T08:34:40.735Z,55.40
2019-03-25T08:37:09.028Z,55.30
2019-03-25T08:39:37.301Z,55.20
2019-03-25T08:42:05.598Z,55.10
2019-03-25T08:44:33.874Z,55.00
2019-03-25T08:47:02.164Z,55.00
2019-03-25T08:49:30.431Z,55.00
2019-03-25T08:51:58.729Z,55.00
2019-03-25T08:54:27.196Z,55.00
2019-03-25T08:56:55.468Z,55.30
2019-03-25T08:59:23.739Z,54.70
2019-03-25T09:01:52.032Z,54.70
2019-03-25T09:04:20.311Z,54.60
2019-03-25T09:06:48.592Z,54.60
2019-03-25T09:09:16.875Z,54.50
2019-03-25T09:11:45.245Z,54.40
2019-03-25T09:14:13.522Z,54.50
2019-03-25T09:16:41.914Z,54.30
2019-03-25T09:19:10.257Z,54.20
2019-03-25T09:21:38.605Z,54.20
2019-03-25T09:24:06.975Z,54.00
2019-03-25T09:26:35.247Z,54.00
2019-03-25T09:29:03.554Z,53.90
2019-03-25T09:31:36.800Z,53.90
2019-03-25T09:34:02.918Z,53.90
2019-03-25T09:36:31.199Z,53.90
2019-03-25T09:38:59.552Z,54.00
2019-03-25T09:41:27.831Z,54.30
2019-03-25T09:43:56.182Z,54.00
2019-03-25T09:46:24.459Z,54.00
2019-03-25T09:48:52.810Z,54.00
2019-03-25T09:51:21.171Z,54.50
2019-03-25T09:53:49.445Z,54.00
2019-03-25T09:56:17.736Z,53.90
2019-03-25T09:58:46.009Z,53.80
2019-03-25T10:01:14.305Z,53.80
2019-03-25T10:03:42.593Z,53.80
2019-03-25T10:06:10.882Z,53.70
2019-03-25T10:08:39.160Z,53.70
2019-03-25T10:11:07.447Z,53.70
2019-03-25T10:13:35.724Z,53.60
2019-03-25T10:16:04.010Z,53.60
2019-03-25T10:18:32.278Z,53.60
2019-03-25T10:21:00.572Z,53.60
2019-03-25T10:23:28.847Z,54.10
2019-03-25T10:25:57.135Z,53.60
2019-03-25T10:28:25.409Z,53.60
2019-03-25T10:30:53.694Z,53.50
2019-03-25T10:33:21.969Z,53.60
2019-03-25T10:35:50.327Z,53.50
2019-03-25T10:38:19.791Z,53.50
2019-03-25T10:40:48.439Z,53.50
2019-03-25T10:43:16.802Z,53.40
2019-03-25T10:45:45.073Z,53.40
2019-03-25T10:48:13.365Z,53.40
2019-03-25T10:50:41.643Z,53.40
2019-03-25T10:53:10.056Z,53.90
2019-03-25T10:55:38.364Z,53.40
2019-03-25T10:58:06.768Z,53.40
2019-03-25T11:00:35.035Z,53.40
2019-03-25T11:03:03.492Z,53.40
2019-03-25T11:05:31.774Z,53.40
2019-03-25T11:08:00.067Z,53.40
2019-03-25T11:10:28.342Z,53.40
2019-03-25T11:12:56.627Z,53.50
2019-03-25T11:15:24.905Z,53.50
2019-03-25T11:17:53.197Z,53.50
2019-03-25T11:20:21.943Z,53.50
2019-03-25T11:22:50.219Z,53.50
2019-03-25T11:25:18.593Z,53.50
2019-03-25T11:27:54.247Z,53.40
2019-03-25T11:30:19.864Z,53.50
2019-03-25T11:32:48.242Z,53.50
2019-03-25T11:35:16.579Z,53.40
2019-03-25T11:37:44.932Z,53.50
2019-03-25T11:40:13.297Z,53.60
2019-03-25T11:42:41.588Z,53.50
2019-03-25T11:45:10.019Z,54.10
2019-03-25T11:47:38.290Z,53.50
2019-03-25T11:50:10.075Z,53.60
2019-03-25T11:52:38.423Z,53.60
2019-03-25T11:55:07.599Z,54.10
2019-03-25T11:57:35.871Z,53.50
2019-03-25T12:00:07.349Z,53.60
2019-03-25T12:02:35.675Z,53.60
2019-03-25T12:05:07.529Z,53.60
2019-03-25T12:07:35.893Z,53.70
2019-03-25T12:10:05.616Z,53.70
2019-03-25T12:12:33.991Z,53.60
2019-03-25T12:15:02.335Z,53.60
2019-03-25T12:17:30.619Z,53.60
2019-03-25T12:19:58.893Z,53.60
2019-03-25T12:22:27.195Z,53.60
2019-03-25T12:24:55.543Z,53.60
2019-03-25T12:27:23.982Z,53.60
2019-03-25T12:29:52.360Z,53.60
2019-03-25T12:32:20.735Z,53.60
2019-03-25T12:34:49.080Z,53.50
2019-03-25T12:37:17.387Z,53.50
2019-03-25T12:39:45.662Z,53.50
2019-03-25T12:42:13.938Z,53.50
2019-03-25T12:44:42.226Z,53.40
2019-03-25T12:47:10.503Z,53.10
2019-03-25T12:49:38.804Z,53.40
2019-03-25T12:52:07.192Z,53.40
2019-03-25T12:54:35.473Z,53.30
2019-03-25T12:57:03.755Z,53.30
2019-03-25T12:59:40.741Z,53.20
2019-03-25T13:02:02.050Z,53.30
2019-03-25T13:04:30.415Z,53.30
2019-03-25T13:06:58.723Z,53.30
2019-03-25T13:09:27.014Z,53.30
2019-03-25T13:11:55.295Z,53.20
2019-03-25T13:14:23.654Z,53.20
2019-03-25T13:16:51.942Z,53.20
2019-03-25T13:19:20.294Z,53.20
2019-03-25T13:21:49.062Z,53.10
2019-03-25T13:24:17.411Z,53.10
2019-03-25T13:26:45.710Z,53.10
2019-03-25T13:29:13.988Z,53.10
2019-03-25T13:31:42.355Z,53.20
2019-03-25T13:34:10.693Z,53.20
2019-03-25T13:36:38.986Z,53.10
2019-03-25T13:39:07.263Z,53.10
2019-03-25T13:41:35.622Z,53.20
2019-03-25T13:44:03.898Z,53.10
2019-03-25T13:46:32.228Z,53.10
2019-03-25T13:49:00.497Z,53.10
2019-03-25T13:51:28.904Z,53.10
2019-03-25T13:53:57.218Z,53.00
2019-03-25T13:56:25.503Z,53.00
2019-03-25T13:58:53.862Z,53.00
2019-03-25T14:01:22.137Z,53.00
2019-03-25T14:03:50.430Z,52.90
2019-03-25T14:06:18.694Z,52.90
2019-03-25T14:08:46.986Z,52.90
2019-03-25T14:11:15.266Z,52.90
2019-03-25T14:13:49.053Z,52.90
2019-03-25T14:16:13.551Z,52.90
2019-03-25T14:18:41.842Z,52.90
2019-03-25T14:21:10.119Z,52.90
2019-03-25T14:23:38.412Z,52.90
2019-03-25T14:26:06.763Z,52.90
2019-03-25T14:28:35.035Z,53.20
2019-03-25T14:31:03.319Z,52.90
2019-03-25T14:33:31.597Z,52.90
2019-03-25T14:35:59.886Z,52.90
2019-03-25T14:38:28.228Z,52.80
2019-03-25T14:40:56.524Z,52.80
2019-03-25T14:43:24.896Z,52.80
2019-03-25T14:45:53.188Z,52.80
2019-03-25T14:48:21.467Z,52.80
2019-03-25T14:50:49.827Z,52.80
2019-03-25T14:53:18.102Z,52.70
2019-03-25T14:55:46.407Z,52.80
2019-03-25T14:58:14.765Z,52.70
2019-03-25T15:00:43.055Z,52.70
2019-03-25T15:03:11.331Z,52.80
2019-03-25T15:05:39.758Z,52.80
2019-03-25T15:08:08.036Z,52.80
2019-03-25T15:10:36.338Z,52.80
2019-03-25T15:13:04.675Z,52.80
2019-03-25T15:15:32.959Z,52.80
2019-03-25T15:18:01.235Z,52.80
2019-03-25T15:20:29.522Z,52.70
2019-03-25T15:22:57.794Z,52.80
2019-03-25T15:25:26.080Z,52.70
2019-03-25T15:27:54.362Z,52.80
2019-03-25T15:30:22.721Z,52.70
2019-03-25T15:32:50.999Z,52.80
2019-03-25T15:35:19.294Z,52.70
2019-03-25T15:37:47.909Z,52.70
2019-03-25T15:40:17.614Z,52.70
2019-03-25T15:42:46.315Z,52.70
2019-03-25T15:45:14.641Z,52.70
2019-03-25T15:47:46.925Z,52.70
2019-03-25T15:50:12.940Z,52.70
2019-03-25T15:52:41.233Z,52.80
2019-03-25T15:55:09.508Z,52.80
2019-03-25T15:57:39.705Z,52.80
2019-03-25T16:00:16.556Z,52.70
2019-03-25T16:02:44.915Z,52.70
2019-03-25T16:05:13.264Z,53.30
2019-03-25T16:07:41.559Z,52.80
2019-03-25T16:10:10.169Z,52.90
2019-03-25T16:12:38.435Z,52.90
2019-03-25T16:15:06.974Z,53.10
2019-03-25T16:17:35.257Z,53.20
2019-03-25T16:20:06.979Z,53.20
2019-03-25T16:22:35.250Z,53.30
2019-03-25T16:25:05.177Z,53.40
2019-03-25T16:27:33.542Z,53.50
2019-03-25T16:30:01.940Z,53.50
2019-03-25T16:32:30.292Z,53.50
2019-03-25T16:34:58.686Z,53.60
2019-03-25T16:37:27.055Z,53.80
2019-03-25T16:39:55.447Z,53.80
2019-03-25T16:42:23.817Z,53.90
2019-03-25T16:44:52.212Z,53.90
2019-03-25T16:47:20.579Z,53.90
2019-03-25T16:49:49.054Z,53.90
2019-03-25T16:52:17.437Z,53.90
2019-03-25T16:55:05.500Z,53.90
2019-03-25T16:57:33.887Z,54.00
2019-03-25T17:00:02.238Z,53.90
2019-03-25T17:02:30.610Z,54.00
2019-03-25T17:04:58.965Z,54.00
2019-03-25T17:07:27.338Z,54.20
2019-03-25T17:09:55.946Z,54.30
2019-03-25T17:12:24.227Z,54.30
2019-03-25T17:14:52.537Z,54.40
2019-03-25T17:17:20.886Z,54.40
2019-03-25T17:19:49.189Z,54.40
2019-03-25T17:22:17.565Z,54.50
2019-03-25T17:24:45.954Z,54.50
2019-03-25T17:27:17.155Z,54.60
2019-03-25T17:29:45.480Z,54.70
2019-03-25T17:32:13.825Z,55.10
2019-03-25T17:34:42.131Z,54.90
2019-03-25T17:37:10.413Z,55.10
2019-03-25T17:39:38.691Z,55.20
2019-03-25T17:42:06.987Z,55.30
2019-03-25T17:44:35.272Z,55.60
2019-03-25T17:47:03.567Z,55.60
2019-03-25T17:49:31.848Z,55.70
2019-03-25T17:52:00.276Z,55.70
2019-03-25T17:54:28.584Z,55.80
2019-03-25T17:56:57.004Z,55.90
2019-03-25T17:59:25.278Z,56.00
2019-03-25T18:01:53.586Z,56.10
2019-03-25T18:04:21.952Z,56.30
2019-03-25T18:06:50.335Z,56.30
2019-03-25T18:09:18.682Z,56.40
2019-03-25T18:11:46.980Z,56.40
2019-03-25T18:14:15.248Z,56.40
2019-03-25T18:16:43.562Z,56.40
2019-03-25T18:19:11.906Z,56.40
2019-03-25T18:21:40.215Z,56.40
2019-03-25T18:24:08.551Z,56.40
2019-03-25T18:26:36.838Z,56.40
2019-03-25T18:29:05.112Z,56.40
2019-03-25T18:31:42.910Z,56.40
2019-03-25T18:34:03.436Z,56.40
2019-03-25T18:36:31.722Z,56.40
2019-03-25T18:39:00.002Z,56.40
2019-03-25T18:41:28.311Z,56.30
2019-03-25T18:43:56.671Z,56.30
2019-03-25T18:46:25.042Z,56.30
2019-03-25T18:48:53.392Z,56.40
2019-03-25T18:51:21.780Z,56.30
2019-03-25T18:53:50.144Z,56.20
2019-03-25T18:56:18.490Z,56.30
2019-03-25T18:58:46.800Z,56.40
2019-03-25T19:01:15.140Z,56.40
2019-03-25T19:03:43.432Z,56.40
2019-03-25T19:06:11.713Z,56.40
2019-03-25T19:08:40.085Z,56.40
2019-03-25T19:11:08.455Z,56.40
2019-03-25T19:13:36.787Z,56.50
2019-03-25T19:16:05.125Z,56.50
2019-03-25T19:18:33.779Z,56.50
2019-03-25T19:21:02.206Z,56.60
2019-03-25T19:23:30.529Z,56.60
2019-03-25T19:25:58.955Z,56.60
2019-03-25T19:28:27.231Z,57.20
2019-03-25T19:30:55.539Z,56.70
2019-03-25T19:33:25.123Z,56.70
2019-03-25T19:35:53.433Z,56.70
2019-03-25T19:38:21.797Z,56.80
2019-03-25T19:40:50.163Z,56.90
2019-03-25T19:43:18.515Z,57.00
2019-03-25T19:45:46.875Z,56.90
2019-03-25T19:48:15.230Z,57.10
2019-03-25T19:50:43.630Z,57.00
2019-03-25T19:53:19.167Z,57.40
2019-03-25T19:55:42.038Z,57.20
2019-03-25T19:58:10.355Z,57.20
2019-03-25T20:00:39.432Z,57.20
2019-03-25T20:03:07.876Z,57.30
2019-03-25T20:05:36.225Z,57.30
2019-03-25T20:08:23.980Z,57.30
2019-03-25T20:10:52.300Z,57.30
2019-03-25T20:13:20.588Z,57.40
2019-03-25T20:15:48.884Z,57.40
2019-03-25T20:18:17.230Z,57.60
2019-03-25T20:20:45.548Z,57.60
2019-03-25T20:23:13.874Z,57.80
2019-03-25T20:25:42.255Z,58.00
2019-03-25T20:28:10.634Z,58.10
2019-03-25T20:30:38.954Z,58.30
2019-03-25T20:33:07.282Z,58.50
2019-03-25T20:35:35.770Z,58.50
2019-03-25T20:38:04.157Z,58.50
2019-03-25T20:40:32.521Z,58.50
2019-03-25T20:43:00.901Z,58.50
2019-03-25T20:45:29.280Z,58.60
2019-03-25T20:47:57.613Z,58.70
2019-03-25T20:50:25.987Z,58.80
2019-03-25T20:52:54.401Z,58.70
2019-03-25T20:55:22.680Z,58.80
2019-03-25T20:57:51.075Z,58.80
2019-03-25T21:00:22.793Z,58.90
2019-03-25T21:02:51.145Z,58.90
2019-03-25T21:05:19.447Z,59.60
2019-03-25T21:07:49.459Z,59.00
2019-03-25T21:10:17.920Z,59.00
2019-03-25T21:12:46.348Z,59.00
2019-03-25T21:15:14.671Z,59.00
2019-03-25T21:17:43.073Z,58.90
2019-03-25T21:20:11.476Z,58.70
2019-03-25T21:22:39.813Z,58.70
2019-03-25T21:25:08.203Z,58.70
2019-03-25T21:27:36.622Z,58.70
2019-03-25T21:30:06.219Z,58.60
2019-03-25T21:32:34.560Z,58.60
2019-03-25T21:35:03.047Z,58.50
2019-03-25T21:37:31.433Z,58.60
2019-03-25T21:39:59.939Z,58.60
2019-03-25T21:42:29.255Z,58.50
2019-03-25T21:44:57.852Z,58.50
2019-03-25T21:47:26.206Z,58.60
2019-03-25T21:49:54.596Z,58.50
2019-03-25T21:52:23.004Z,58.50
2019-03-25T21:54:51.722Z,58.50
2019-03-25T21:57:20.018Z,58.50
2019-03-25T21:59:48.410Z,58.60
2019-03-25T22:02:16.776Z,58.40
2019-03-25T22:04:45.157Z,58.90
2019-03-25T22:07:13.455Z,58.40
2019-03-25T22:09:41.972Z,58.30
2019-03-25T22:12:10.247Z,58.40
2019-03-25T22:14:38.516Z,58.20
2019-03-25T22:17:06.815Z,58.20
2019-03-25T22:19:35.089Z,58.20
2019-03-25T22:22:03.387Z,58.20
2019-03-25T22:24:31.734Z,57.80
2019-03-25T22:27:00.102Z,58.20
2019-03-25T22:29:28.449Z,58.20
2019-03-25T22:31:56.781Z,58.10
2019-03-25T22:34:25.145Z,58.00
2019-03-25T22:36:53.499Z,58.00
2019-03-25T22:39:21.769Z,57.90
2019-03-25T22:41:50.067Z,57.90
2019-03-25T22:44:18.427Z,57.90
2019-03-25T22:46:46.717Z,57.90
2019-03-25T22:49:15.002Z,57.80
2019-03-25T22:51:43.277Z,57.80
2019-03-25T22:54:11.561Z,57.80
2019-03-25T22:56:39.839Z,57.80
2019-03-25T22:59:08.199Z,57.80
2019-03-25T23:01:36.472Z,57.70
2019-03-25T23:04:04.762Z,57.70
2019-03-25T23:06:33.179Z,57.70
2019-03-25T23:09:01.554Z,57.70
2019-03-25T23:11:29.919Z,57.70
2019-03-25T23:13:58.308Z,57.70
2019-03-25T23:16:26.678Z,57.60
2019-03-25T23:18:55.071Z,57.60
2019-03-25T23:21:23.432Z,57.60
2019-03-25T23:23:51.820Z,57.60
2019-03-25T23:26:20.210Z,57.50
2019-03-25T23:28:48.586Z,57.50
2019-03-25T23:31:16.960Z,57.50
2019-03-25T23:33:52.198Z,57.50
2019-03-25T23:36:15.370Z,57.40
2019-03-25T23:38:43.734Z,57.40
2019-03-25T23:41:12.496Z,57.30
2019-03-25T23:43:40.840Z,57.30
2019-03-25T23:46:09.204Z,57.20
2019-03-25T23:48:37.538Z,57.20
2019-03-25T23:51:05.900Z,57.20
2019-03-25T23:53:34.173Z,57.10
2019-03-25T23:56:02.475Z,57.10
2019-03-25T23:58:30.751Z,57.10
